createdAt,value
2018-11-04T00:00:54.662Z,63.03
2018-11-04T00:03:24.021Z,62.37
2018-11-04T00:05:53.934Z,60.67
2018-11-04T00:08:22.592Z,58.00
2018-11-04T00:10:51.214Z,54.80
2018-11-04T00:13:20.213Z,58.27
2018-11-04T00:15:49.111Z,53.00
2018-11-04T00:18:17.862Z,60.63
2018-11-04T00:20:46.471Z,53.10
2018-11-04T00:23:15.747Z,48.03
2018-11-04T00:25:45.543Z,53.93
2018-11-04T00:28:14.199Z,48.40
2018-11-04T00:30:43.675Z,48.60
2018-11-04T00:33:12.308Z,47.27
2018-11-04T00:35:41.546Z,49.90
2018-11-04T00:38:10.151Z,44.87
2018-11-04T00:40:38.809Z,46.03
2018-11-04T00:43:07.434Z,46.23
2018-11-04T00:45:36.105Z,42.80
2018-11-04T00:48:04.735Z,41.27
2018-11-04T00:50:33.335Z,41.20
2018-11-04T00:53:01.950Z,45.83
2018-11-04T00:55:30.575Z,36.73
2018-11-04T00:57:59.185Z,39.60
2018-11-04T01:00:27.903Z,37.07
2018-11-04T01:02:56.555Z,36.70
2018-11-04T01:05:25.194Z,40.83
2018-11-04T01:07:53.802Z,42.70
2018-11-04T01:10:22.422Z,42.90
2018-11-04T01:12:51.070Z,38.33
2018-11-04T01:15:19.678Z,40.23
2018-11-04T01:17:48.357Z,35.90
2018-11-04T01:20:17.594Z,40.27
2018-11-04T01:22:46.570Z,36.30
2018-11-04T01:25:15.218Z,37.80
2018-11-04T01:27:44.744Z,32.93
2018-11-04T01:30:14.955Z,38.40
2018-11-04T01:32:43.902Z,33.77
2018-11-04T01:35:12.515Z,34.57
2018-11-04T01:37:41.118Z,36.07
2018-11-04T01:40:10.454Z,32.97
2018-11-04T01:42:39.432Z,35.47
2018-11-04T01:45:09.475Z,35.33
2018-11-04T01:47:38.083Z,33.63
2018-11-04T01:50:08.679Z,34.03
2018-11-04T01:52:37.308Z,35.10
2018-11-04T01:55:06.753Z,34.03
2018-11-04T01:57:35.490Z,40.40
2018-11-04T02:00:05.494Z,36.23
2018-11-04T02:02:34.116Z,35.07
2018-11-04T02:05:02.762Z,33.83
2018-11-04T02:07:31.998Z,35.13
2018-11-04T02:10:01.331Z,35.17
2018-11-04T02:12:37.532Z,33.03
2018-11-04T02:15:06.836Z,35.87
2018-11-04T02:17:35.671Z,33.07
2018-11-04T02:20:04.379Z,33.97
2018-11-04T02:22:32.979Z,39.07
2018-11-04T02:25:01.587Z,36.50
2018-11-04T02:27:31.082Z,36.40
2018-11-04T02:29:59.679Z,38.37
2018-11-04T02:32:28.286Z,41.73
2018-11-04T02:34:56.912Z,35.43
2018-11-04T02:37:25.516Z,41.43
2018-11-04T02:39:54.118Z,38.43
2018-11-04T02:42:22.743Z,41.10
2018-11-04T02:44:52.230Z,32.00
2018-11-04T02:47:20.843Z,36.60
2018-11-04T02:49:49.625Z,38.80
2018-11-04T02:52:18.235Z,38.10
2018-11-04T02:54:47.411Z,37.47
2018-11-04T02:57:16.056Z,36.80
2018-11-04T02:59:44.663Z,38.20
2018-11-04T03:02:13.274Z,32.10
2018-11-04T03:04:41.929Z,36.10
2018-11-04T03:07:10.562Z,35.40
2018-11-04T03:09:39.178Z,32.17
2018-11-04T03:12:07.851Z,32.50
2018-11-04T03:14:36.466Z,33.30
2018-11-04T03:17:05.251Z,33.63
2018-11-04T03:19:33.858Z,29.03
2018-11-04T03:22:03.192Z,32.53
2018-11-04T03:24:31.910Z,35.27
2018-11-04T03:27:00.515Z,25.07
2018-11-04T03:29:29.103Z,28.47
2018-11-04T03:31:57.723Z,29.30
2018-11-04T03:34:27.063Z,32.53
2018-11-04T03:36:55.763Z,26.73
2018-11-04T03:39:24.374Z,27.30
2018-11-04T03:41:52.975Z,27.40
2018-11-04T03:44:21.602Z,26.70
2018-11-04T03:46:50.199Z,20.43
2018-11-04T03:49:18.806Z,28.63
2018-11-04T03:51:47.431Z,23.47
2018-11-04T03:54:16.742Z,22.60
2018-11-04T03:56:45.362Z,23.47
2018-11-04T03:59:13.974Z,21.47
2018-11-04T04:01:43.162Z,24.67
2018-11-04T04:04:11.803Z,20.97
2018-11-04T04:06:40.403Z,19.83
2018-11-04T04:09:09.903Z,25.80
2018-11-04T04:11:38.724Z,21.90
2018-11-04T04:14:13.925Z,24.37
2018-11-04T04:16:42.543Z,23.07
2018-11-04T04:19:11.223Z,24.10
2018-11-04T04:21:39.935Z,21.30
2018-11-04T04:24:08.623Z,22.47
2018-11-04T04:26:37.302Z,22.23
2018-11-04T04:29:05.960Z,24.10
2018-11-04T04:31:34.561Z,23.13
2018-11-04T04:34:03.771Z,24.83
2018-11-04T04:36:32.391Z,28.80
2018-11-04T04:39:01.523Z,20.77
2018-11-04T04:41:30.121Z,30.87
2018-11-04T04:43:58.851Z,24.90
2018-11-04T04:46:28.102Z,27.10
2018-11-04T04:48:57.435Z,26.23
2018-11-04T04:51:27.654Z,30.10
2018-11-04T04:53:57.994Z,24.27
2018-11-04T04:56:26.650Z,24.17
2018-11-04T04:58:55.270Z,25.20
2018-11-04T05:01:23.891Z,20.83
2018-11-04T05:03:52.518Z,32.43
2018-11-04T05:06:21.106Z,43.80
2018-11-04T05:08:49.706Z,32.03
2018-11-04T05:11:18.374Z,24.93
2018-11-04T05:13:46.994Z,36.20
2018-11-04T05:16:15.614Z,29.90
2018-11-04T05:18:44.310Z,31.73
2018-11-04T05:21:12.939Z,33.63
2018-11-04T05:23:42.255Z,30.07
2018-11-04T05:26:10.927Z,37.17
2018-11-04T05:28:39.553Z,33.20
2018-11-04T05:31:08.158Z,33.57
2018-11-04T05:33:37.405Z,29.97
2018-11-04T05:36:06.014Z,34.13
2018-11-04T05:38:34.627Z,31.37
2018-11-04T05:41:03.254Z,33.50
2018-11-04T05:43:31.991Z,31.63
2018-11-04T05:46:00.582Z,31.97
2018-11-04T05:48:29.242Z,30.03
2018-11-04T05:50:57.926Z,33.80
2018-11-04T05:53:26.522Z,29.80
2018-11-04T05:55:55.141Z,26.00
2018-11-04T05:58:23.731Z,28.10
2018-11-04T06:00:52.352Z,25.90
2018-11-04T06:03:22.323Z,31.90
2018-11-04T06:05:52.323Z,29.40
2018-11-04T06:08:20.946Z,34.87
2018-11-04T06:10:49.567Z,29.73
2018-11-04T06:13:18.751Z,26.13
2018-11-04T06:15:47.343Z,34.17
2018-11-04T06:18:15.982Z,27.70
2018-11-04T06:20:44.585Z,25.40
2018-11-04T06:23:13.991Z,29.20
2018-11-04T06:25:43.178Z,28.83
2018-11-04T06:28:12.505Z,22.00
2018-11-04T06:30:41.762Z,31.03
2018-11-04T06:33:10.489Z,27.60
2018-11-04T06:35:39.078Z,25.17
2018-11-04T06:38:08.370Z,25.77
2018-11-04T06:40:36.978Z,24.50
2018-11-04T06:43:06.690Z,22.60
2018-11-04T06:45:35.462Z,25.63
2018-11-04T06:48:04.103Z,28.90
2018-11-04T06:50:32.917Z,29.93
2018-11-04T06:53:01.691Z,26.97
2018-11-04T06:55:30.394Z,25.97
2018-11-04T06:57:58.993Z,27.57
2018-11-04T07:00:28.195Z,28.00
2018-11-04T07:02:56.886Z,29.20
2018-11-04T07:05:25.579Z,30.20
2018-11-04T07:07:54.418Z,28.37
2018-11-04T07:10:23.055Z,32.00
2018-11-04T07:12:51.646Z,27.70
2018-11-04T07:15:20.234Z,28.57
2018-11-04T07:17:48.852Z,30.40
2018-11-04T07:20:18.799Z,33.43
2018-11-04T07:22:47.583Z,29.50
2018-11-04T07:25:16.267Z,30.27
2018-11-04T07:27:44.855Z,33.60
2018-11-04T07:30:13.458Z,29.53
2018-11-04T07:32:42.411Z,33.07
2018-11-04T07:35:11.287Z,31.90
2018-11-04T07:37:40.286Z,29.40
2018-11-04T07:40:09.350Z,28.10
2018-11-04T07:42:38.466Z,28.80
2018-11-04T07:45:09.865Z,26.67
2018-11-04T07:47:39.159Z,31.73
2018-11-04T07:50:11.140Z,31.00
2018-11-04T07:52:39.718Z,31.43
2018-11-04T07:55:09.283Z,30.13
2018-11-04T07:57:40.493Z,28.33
2018-11-04T08:00:12.088Z,30.60
2018-11-04T08:02:40.982Z,28.07
2018-11-04T08:05:10.471Z,29.27
2018-11-04T08:07:39.671Z,30.37
2018-11-04T08:10:10.418Z,30.07
2018-11-04T08:12:40.008Z,28.33
2018-11-04T08:15:11.385Z,37.33
2018-11-04T08:17:40.348Z,29.43
2018-11-04T08:20:10.367Z,27.80
2018-11-04T08:22:39.376Z,27.77
2018-11-04T08:25:09.318Z,28.90
2018-11-04T08:27:38.612Z,25.43
2018-11-04T08:30:08.186Z,27.60
2018-11-04T08:32:37.848Z,32.07
2018-11-04T08:35:07.820Z,27.40
2018-11-04T08:37:36.424Z,30.73
2018-11-04T08:40:06.371Z,25.10
2018-11-04T08:42:34.818Z,26.70
2018-11-04T08:45:04.040Z,26.80
2018-11-04T08:47:32.738Z,32.40
2018-11-04T08:50:01.395Z,30.17
2018-11-04T08:52:30.817Z,29.83
2018-11-04T08:55:00.175Z,29.60
2018-11-04T08:57:29.091Z,31.70
2018-11-04T08:59:58.241Z,28.07
2018-11-04T09:02:26.871Z,26.57
2018-11-04T09:04:56.192Z,27.40
2018-11-04T09:07:24.868Z,28.13
2018-11-04T09:09:54.087Z,31.40
2018-11-04T09:12:22.694Z,30.07
2018-11-04T09:14:52.563Z,35.20
2018-11-04T09:17:21.671Z,37.03
2018-11-04T09:19:50.269Z,30.10
2018-11-04T09:22:19.642Z,30.90
2018-11-04T09:24:48.746Z,30.73
2018-11-04T09:27:17.331Z,31.30
2018-11-04T09:29:46.008Z,30.97
2018-11-04T09:32:14.727Z,27.20
2018-11-04T09:34:44.609Z,29.80
2018-11-04T09:37:13.775Z,28.07
2018-11-04T09:39:42.466Z,31.23
2018-11-04T09:42:11.155Z,29.73
2018-11-04T09:44:39.866Z,24.13
2018-11-04T09:47:08.471Z,29.13
2018-11-04T09:49:37.694Z,26.27
2018-11-04T09:52:06.350Z,28.00
2018-11-04T09:54:35.527Z,26.83
2018-11-04T09:57:04.230Z,26.13
2018-11-04T09:59:33.703Z,27.47
2018-11-04T10:02:03.758Z,27.13
2018-11-04T10:04:33.077Z,25.37
2018-11-04T10:07:02.820Z,24.80
2018-11-04T10:09:32.058Z,23.60
2018-11-04T10:12:00.699Z,22.23
2018-11-04T10:14:30.222Z,20.47
2018-11-04T10:17:00.248Z,20.63
2018-11-04T10:19:28.906Z,24.33
2018-11-04T10:21:58.536Z,18.67
2018-11-04T10:24:27.401Z,20.03
2018-11-04T10:26:56.095Z,21.83
2018-11-04T10:29:24.810Z,29.00
2018-11-04T10:31:54.144Z,21.57
2018-11-04T10:34:22.758Z,22.90
2018-11-04T10:36:51.387Z,18.80
2018-11-04T10:39:20.580Z,26.20
2018-11-04T10:41:49.238Z,24.00
2018-11-04T10:44:18.446Z,23.27
2018-11-04T10:46:47.046Z,18.17
2018-11-04T10:49:15.748Z,19.77
2018-11-04T10:51:45.051Z,21.10
2018-11-04T10:54:13.705Z,20.57
2018-11-04T10:56:43.047Z,24.20
2018-11-04T10:59:13.543Z,18.87
2018-11-04T11:01:42.230Z,27.43
2018-11-04T11:04:10.839Z,21.33
2018-11-04T11:06:40.641Z,23.20
2018-11-04T11:09:10.290Z,22.33
2018-11-04T11:11:40.399Z,21.50
2018-11-04T11:14:09.602Z,24.97
2018-11-04T11:16:38.306Z,21.90
2018-11-04T11:19:07.012Z,22.03
2018-11-04T11:21:35.698Z,27.20
2018-11-04T11:24:05.434Z,27.40
2018-11-04T11:26:34.069Z,40.07
2018-11-04T11:29:02.675Z,35.73
2018-11-04T11:31:32.711Z,39.77
2018-11-04T11:34:01.863Z,52.33
2018-11-04T11:36:31.875Z,59.23
2018-11-04T11:39:01.103Z,53.73
2018-11-04T11:41:29.795Z,36.43
2018-11-04T11:43:59.041Z,39.70
2018-11-04T11:46:27.727Z,44.57
2018-11-04T11:48:56.408Z,40.13
2018-11-04T11:51:26.705Z,34.67
2018-11-04T11:53:56.706Z,38.00
2018-11-04T11:56:25.378Z,40.93
2018-11-04T11:58:54.080Z,36.50
2018-11-04T12:01:22.707Z,33.13
2018-11-04T12:03:51.899Z,39.50
2018-11-04T12:06:20.692Z,37.13
2018-11-04T12:08:50.055Z,39.83
2018-11-04T12:11:19.151Z,41.60
2018-11-04T12:13:48.675Z,38.33
2018-11-04T12:16:17.403Z,42.40
2018-11-04T12:18:46.094Z,35.47
2018-11-04T12:21:14.779Z,45.20
2018-11-04T12:23:44.823Z,39.03
2018-11-04T12:26:13.852Z,40.07
2018-11-04T12:28:42.496Z,39.80
2018-11-04T12:31:11.680Z,40.03
2018-11-04T12:33:40.335Z,39.53
2018-11-04T12:36:08.953Z,38.30
2018-11-04T12:38:39.294Z,36.70
2018-11-04T12:41:07.972Z,38.67
2018-11-04T12:43:37.743Z,40.27
2018-11-04T12:46:06.412Z,44.37
2018-11-04T12:48:35.042Z,40.70
2018-11-04T12:51:03.654Z,39.77
2018-11-04T12:53:32.786Z,35.17
2018-11-04T12:56:02.842Z,40.57
2018-11-04T12:58:31.450Z,44.97
2018-11-04T13:01:00.123Z,38.73
2018-11-04T13:03:28.747Z,38.20
2018-11-04T13:05:57.375Z,38.53
2018-11-04T13:08:27.140Z,39.07
2018-11-04T13:10:56.278Z,40.90
2018-11-04T13:13:24.890Z,38.97
2018-11-04T13:15:53.555Z,41.30
2018-11-04T13:18:23.270Z,49.97
2018-11-04T13:20:52.546Z,40.60
2018-11-04T13:23:21.295Z,49.57
2018-11-04T13:25:50.530Z,45.20
2018-11-04T13:28:19.858Z,41.40
2018-11-04T13:30:50.515Z,42.30
2018-11-04T13:33:19.103Z,42.77
2018-11-04T13:35:47.751Z,39.77
2018-11-04T13:38:17.182Z,43.23
2018-11-04T13:40:46.348Z,42.63
2018-11-04T13:43:15.008Z,46.73
2018-11-04T13:45:43.698Z,45.57
2018-11-04T13:48:13.044Z,42.77
2018-11-04T13:50:42.307Z,43.50
2018-11-04T13:53:11.018Z,43.20
2018-11-04T13:55:40.839Z,45.63
2018-11-04T13:58:10.534Z,44.40
2018-11-04T14:00:39.222Z,49.27
2018-11-04T14:03:08.916Z,47.67
2018-11-04T14:05:38.638Z,48.57
2018-11-04T14:08:07.395Z,44.33
2018-11-04T14:10:37.146Z,50.20
2018-11-04T14:13:06.166Z,47.43
2018-11-04T14:15:34.803Z,53.60
2018-11-04T14:18:04.178Z,49.60
2018-11-04T14:20:32.796Z,52.43
2018-11-04T14:23:02.844Z,49.57
2018-11-04T14:25:31.561Z,50.30
2018-11-04T14:28:00.195Z,47.23
2018-11-04T14:30:30.467Z,51.70
2018-11-04T14:32:59.087Z,49.70
2018-11-04T14:35:27.714Z,54.53
2018-11-04T14:37:56.320Z,55.50
2018-11-04T14:40:24.929Z,44.07
2018-11-04T14:42:53.594Z,43.90
2018-11-04T14:45:22.178Z,42.83
2018-11-04T14:47:50.783Z,44.53
2018-11-04T14:50:20.286Z,42.03
2018-11-04T14:52:49.311Z,39.40
2018-11-04T14:55:17.926Z,39.00
2018-11-04T14:57:46.557Z,41.07
2018-11-04T15:00:16.641Z,43.40
2018-11-04T15:02:46.475Z,41.10
2018-11-04T15:05:15.855Z,36.67
2018-11-04T15:07:44.496Z,37.30
2018-11-04T15:10:14.995Z,36.77
2018-11-04T15:12:43.933Z,38.77
2018-11-04T15:15:15.057Z,40.33
2018-11-04T15:17:43.665Z,36.93
2018-11-04T15:20:12.784Z,31.27
2018-11-04T15:22:43.219Z,37.40
2018-11-04T15:25:12.347Z,33.77
2018-11-04T15:27:41.059Z,39.00
2018-11-04T15:30:10.393Z,33.87
2018-11-04T15:32:40.242Z,35.53
2018-11-04T15:35:09.472Z,36.23
2018-11-04T15:37:38.112Z,34.40
2018-11-04T15:40:08.528Z,39.60
2018-11-04T15:42:38.039Z,40.00
2018-11-04T15:45:07.943Z,39.17
2018-11-04T15:47:36.573Z,41.30
2018-11-04T15:50:06.858Z,43.30
2018-11-04T15:52:35.733Z,41.00
2018-11-04T15:55:04.650Z,39.90
2018-11-04T15:57:33.355Z,42.10
2018-11-04T16:00:02.045Z,44.30
2018-11-04T16:02:30.675Z,43.30
2018-11-04T16:04:59.884Z,44.20
2018-11-04T16:07:29.190Z,47.23
2018-11-04T16:09:57.920Z,42.70
2018-11-04T16:12:26.559Z,44.50
2018-11-04T16:14:55.239Z,41.83
2018-11-04T16:17:23.816Z,48.17
2018-11-04T16:19:52.928Z,43.80
2018-11-04T16:22:21.539Z,47.37
2018-11-04T16:24:50.162Z,50.43
2018-11-04T16:27:18.831Z,42.07
2018-11-04T16:29:47.449Z,41.73
2018-11-04T16:32:16.162Z,42.60
2018-11-04T16:34:45.655Z,43.03
2018-11-04T16:37:14.370Z,51.63
2018-11-04T16:39:43.043Z,40.30
2018-11-04T16:42:11.638Z,44.57
2018-11-04T16:44:41.014Z,41.33
2018-11-04T16:47:09.531Z,40.47
2018-11-04T16:49:38.111Z,46.83
2018-11-04T16:52:07.443Z,49.10
2018-11-04T16:54:36.084Z,41.43
2018-11-04T16:57:05.515Z,43.77
2018-11-04T16:59:34.142Z,42.63
2018-11-04T17:02:03.026Z,54.10
2018-11-04T17:04:31.864Z,46.53
2018-11-04T17:07:00.976Z,44.03
2018-11-04T17:09:29.650Z,38.50
2018-11-04T17:11:58.239Z,43.60
2018-11-04T17:14:27.086Z,40.27
2018-11-04T17:16:56.601Z,41.70
2018-11-04T17:19:25.927Z,43.70
2018-11-04T17:21:54.615Z,41.13
2018-11-04T17:24:23.249Z,46.27
2018-11-04T17:26:51.858Z,40.27
2018-11-04T17:29:20.478Z,44.33
2018-11-04T17:31:49.866Z,48.80
2018-11-04T17:34:19.530Z,48.63
2018-11-04T17:36:48.256Z,44.43
2018-11-04T17:39:16.974Z,44.67
2018-11-04T17:41:45.720Z,40.70
2018-11-04T17:44:14.348Z,44.93
2018-11-04T17:46:42.991Z,42.83
2018-11-04T17:49:11.619Z,47.23
2018-11-04T17:51:41.759Z,44.93
2018-11-04T17:54:10.453Z,47.27
2018-11-04T17:56:39.007Z,46.77
2018-11-04T17:59:07.622Z,45.73
2018-11-04T18:01:36.256Z,37.87
2018-11-04T18:04:04.999Z,44.67
2018-11-04T18:06:33.674Z,42.40
2018-11-04T18:09:03.914Z,50.60
2018-11-04T18:11:32.526Z,50.07
2018-11-04T18:14:01.808Z,43.27
2018-11-04T18:16:31.023Z,48.97
2018-11-04T18:18:59.615Z,46.07
2018-11-04T18:21:28.730Z,39.43
2018-11-04T18:23:57.347Z,46.87
2018-11-04T18:26:26.737Z,50.87
2018-11-04T18:28:56.044Z,53.87
2018-11-04T18:31:25.307Z,46.53
2018-11-04T18:33:53.902Z,48.90
2018-11-04T18:36:22.506Z,46.20
2018-11-04T18:38:51.127Z,47.03
2018-11-04T18:41:19.803Z,50.00
2018-11-04T18:43:48.560Z,48.80
2018-11-04T18:46:17.215Z,51.57
2018-11-04T18:48:45.897Z,54.03
2018-11-04T18:51:14.567Z,51.37
2018-11-04T18:53:43.150Z,48.60
2018-11-04T18:56:12.522Z,51.80
2018-11-04T18:58:41.777Z,51.60
2018-11-04T19:01:10.445Z,50.43
2018-11-04T19:03:39.067Z,51.40
2018-11-04T19:06:08.603Z,55.73
2018-11-04T19:08:37.311Z,42.27
2018-11-04T19:11:06.685Z,56.27
2018-11-04T19:13:35.965Z,50.33
2018-11-04T19:16:05.077Z,47.50
2018-11-04T19:18:33.698Z,50.73
2018-11-04T19:21:02.937Z,46.10
2018-11-04T19:23:31.639Z,47.57
2018-11-04T19:26:00.985Z,47.43
2018-11-04T19:28:30.294Z,54.87
2018-11-04T19:30:59.065Z,46.37
2018-11-04T19:33:27.687Z,51.57
2018-11-04T19:35:56.359Z,54.17
2018-11-04T19:38:25.618Z,50.67
2018-11-04T19:40:54.980Z,53.97
2018-11-04T19:43:24.574Z,49.83
2018-11-04T19:45:53.237Z,44.90
2018-11-04T19:48:22.567Z,49.57
2018-11-04T19:50:51.395Z,48.30
2018-11-04T19:53:19.994Z,51.00
2018-11-04T19:55:48.627Z,47.73
2018-11-04T19:58:18.216Z,44.03
2018-11-04T20:00:46.893Z,47.40
2018-11-04T20:03:15.720Z,49.90
2018-11-04T20:05:45.356Z,44.20
2018-11-04T20:08:14.228Z,47.43
2018-11-04T20:10:43.014Z,50.43
2018-11-04T20:13:16.954Z,48.00
2018-11-04T20:15:45.656Z,45.00
2018-11-04T20:18:19.630Z,50.03
2018-11-04T20:20:48.954Z,43.30
2018-11-04T20:23:19.024Z,42.00
2018-11-04T20:25:53.239Z,48.67
2018-11-04T20:28:21.825Z,48.50
2018-11-04T20:30:50.447Z,57.37
2018-11-04T20:33:19.174Z,53.77
2018-11-04T20:35:47.823Z,46.37
2018-11-04T20:38:16.437Z,44.40
2018-11-04T20:40:51.044Z,49.70
2018-11-04T20:43:20.266Z,53.70
2018-11-04T20:45:48.903Z,49.50
2018-11-04T20:48:24.014Z,51.40
2018-11-04T20:50:58.131Z,58.50
2018-11-04T20:53:26.875Z,58.67
2018-11-04T20:56:00.759Z,54.60
2018-11-04T20:58:29.381Z,44.13
2018-11-04T21:00:58.015Z,51.00
2018-11-04T21:03:27.798Z,49.80
2018-11-04T21:05:56.477Z,54.97
2018-11-04T21:08:29.406Z,57.23
2018-11-04T21:10:58.707Z,50.07
2018-11-04T21:13:27.806Z,55.93
2018-11-04T21:15:56.548Z,44.20
2018-11-04T21:18:26.518Z,48.63
2018-11-04T21:20:55.814Z,46.60
2018-11-04T21:23:24.498Z,45.50
2018-11-04T21:25:53.108Z,51.87
2018-11-04T21:28:21.851Z,56.13
2018-11-04T21:30:50.425Z,50.17
2018-11-04T21:33:21.159Z,49.63
2018-11-04T21:35:49.978Z,44.33
2018-11-04T21:38:18.659Z,47.57
2018-11-04T21:40:47.293Z,47.50
2018-11-04T21:43:19.903Z,47.37
2018-11-04T21:45:48.435Z,43.83
2018-11-04T21:48:17.087Z,46.77
2018-11-04T21:50:47.142Z,53.67
2018-11-04T21:53:15.762Z,52.97
2018-11-04T21:55:44.868Z,51.10
2018-11-04T21:58:15.091Z,51.93
2018-11-04T22:00:43.787Z,48.03
2018-11-04T22:03:12.732Z,55.13
2018-11-04T22:05:41.174Z,46.97
2018-11-04T22:08:10.518Z,52.90
2018-11-04T22:10:40.290Z,50.00
2018-11-04T22:13:08.967Z,50.73
2018-11-04T22:15:38.475Z,55.27
2018-11-04T22:18:07.693Z,45.00
2018-11-04T22:20:36.314Z,49.47
2018-11-04T22:23:05.056Z,52.10
2018-11-04T22:25:33.712Z,51.77
2018-11-04T22:28:03.020Z,54.80
2018-11-04T22:30:32.878Z,42.67
2018-11-04T22:33:01.480Z,44.93
2018-11-04T22:35:30.591Z,46.67
2018-11-04T22:37:59.663Z,56.87
2018-11-04T22:40:28.494Z,47.40
2018-11-04T22:42:57.131Z,45.27
2018-11-04T22:45:25.818Z,53.13
2018-11-04T22:47:54.604Z,56.40
2018-11-04T22:50:23.737Z,58.53
2018-11-04T22:52:52.434Z,61.70
2018-11-04T22:55:21.635Z,53.67
2018-11-04T22:57:50.759Z,55.03
2018-11-04T23:01:27.587Z,50.17
2018-11-04T23:03:56.159Z,52.30
2018-11-04T23:06:27.015Z,50.30
2018-11-04T23:08:55.742Z,47.13
2018-11-04T23:11:26.202Z,55.27
2018-11-04T23:13:54.907Z,53.00
2018-11-04T23:16:25.220Z,49.83
2018-11-04T23:18:54.751Z,53.40
2018-11-04T23:21:24.035Z,41.10
2018-11-04T23:23:53.354Z,39.20
2018-11-04T23:26:22.551Z,39.97
2018-11-04T23:28:51.323Z,37.37
2018-11-04T23:31:20.015Z,28.07
2018-11-04T23:33:48.775Z,31.53
2018-11-04T23:36:17.398Z,25.23
2018-11-04T23:38:46.667Z,25.30
2018-11-04T23:41:15.290Z,22.40
2018-11-04T23:43:43.915Z,20.93
2018-11-04T23:46:12.603Z,22.53
2018-11-04T23:48:41.894Z,23.50
2018-11-04T23:51:11.746Z,24.17
2018-11-04T23:53:40.331Z,21.87
2018-11-04T23:56:08.948Z,22.97
2018-11-04T23:58:37.534Z,23.40
